Weather observations for the past three days for
El Reno, El Reno Regional Airport
Imperial (Metric)
Date Time (cdt) Wind (mph) Vis. (mi.) Weather Sky Cond. Temperature (ºF) Relative Humidity Wind Chill (°F) Heat Index (°F) Pressure Precipitation (in)
Air Dwpt 6 hour altimeter (in) sea level (mb) 1 hr 3 hr 6 hr
Max. Min.
02 17:35 SE 20 10.00 Partly Cloudy SCT085 100.4 60.8 27% 101 29.9 0.0
02 17:15 SE 13 G 20 10.00 Fair CLR 100.4 60.8 27% 101 29.9 0.0
02 16:55 SE 13 G 17 10.00 Fair CLR 100.4 59 25% 100 29.9 0.0
02 16:35 S 16 10.00 Fair CLR 102.2 60.8 26% 103 29.91 0.0
02 16:15 S 12 G 22 10.00 Partly Cloudy SCT085 100.4 59 25% 100 29.91 0.0
02 15:55 SE 9 G 22 10.00 Partly Cloudy SCT085 102.2 59 24% 102 29.92 0.0
02 15:35 S 16 G 20 10.00 Fair CLR 100.4 59 25% 100 29.93 0.0
02 15:15 SE 10 G 21 10.00 Fair CLR 102.2 60.8 26% 103 29.94 0.0
02 14:55 S 10 G 18 10.00 Fair CLR 100.4 60.8 27% 101 29.95 0.0
02 14:35 SE 9 G 20 10.00 Fair CLR 100.4 60.8 27% 101 29.96 0.0
02 14:15 SE 13 G 18 10.00 Fair CLR 100.4 62.6 29% 102 29.97 0.0
02 13:55 S 8 G 22 10.00 Fair CLR 100.4 60.8 27% 101 29.97 0.0
02 13:35 S 14 G 20 10.00 Fair CLR 98.6 62.6 31% 100 29.98 0.0
02 13:15 S 13 10.00 Fair CLR 98.6 62.6 31% 100 30 0.0
02 12:55 S 10 G 16 10.00 Fair CLR 98.6 64.4 33% 101 30 0.0
02 12:35 S 12 G 18 10.00 Fair CLR 96.8 64.4 34% 99 30.01 0.0
02 12:15 SW 12 G 20 10.00 Fair CLR 96.8 64.4 34% 99 30.02 0.0
02 11:50 S 13 G 21 10.00 Fair CLR 96.8 64.4 34% 99 30.02 0.0
02 11:35 S 10 10.00 Fair CLR 95 64.4 36% 97 30.03 0.0
02 11:15 S 12 10.00 Fair CLR 93.2 66.2 41% 96 30.03 0.0
02 10:55 S 13 10.00 Fair CLR 91.4 66.2 44% 94 30.03 0.0
02 10:35 S 14 10.00 Fair CLR 91.4 66.2 44% 94 30.03 0.0
02 10:15 S 12 10.00 Fair CLR 87.8 66.2 49% 90 30.03 0.0
02 09:55 S 16 10.00 Fair CLR 86 66.2 52% 88 30.04 0.0
02 09:35 S 17 10.00 Fair CLR 86 64.4 49% 87 30.04 0.0
02 09:15 S 16 10.00 Fair CLR 84.2 64.4 51% 86 30.04 0.0
02 08:55 S 16 10.00 Fair CLR 82.4 64.4 55% 84 30.04 0.0
02 08:35 S 14 10.00 Fair CLR 82.4 64.4 55% 84 30.04 0.0
02 08:15 S 14 10.00 Fair CLR 80.6 64.4 58% 82 30.04 0.0
02 07:55 S 12 10.00 Fair CLR 78.8 64.4 61% 81 30.03 0.0
02 07:35 S 9 10.00 Fair CLR 75.2 64.4 69% 77 30.03 0.0
02 07:15 S 9 10.00 Fair CLR 73.4 64.4 74% 30.02 0.0
02 06:55 S 8 10.00 Fair CLR 73.4 64.4 74% 30.01 0.0
02 06:35 S 10 10.00 Fair CLR 73.4 64.4 74% 30.01 0.0
02 06:15 S 9 10.00 Fair CLR 73.4 62.6 69% 30.01 0.0
02 05:55 S 7 10.00 Fair CLR 73.4 62.6 69% 30.01 0.0
02 05:35 S 8 10.00 Fair CLR 75.2 62.6 65% 77 30.01 0.0
02 05:15 S 8 10.00 Fair CLR 75.2 62.6 65% 77 30.01 0.0
02 04:55 S 8 10.00 Fair CLR 75.2 62.6 65% 77 30 0.0
02 04:35 S 8 10.00 Fair CLR 77 62.6 61% 79 30 0.0
02 04:15 S 10 10.00 Fair CLR 77 62.6 61% 79 30 0.0
02 03:55 S 9 10.00 Fair CLR 77 62.6 61% 79 30 0.0
02 03:35 S 9 10.00 Fair CLR 78.8 62.6 58% 80 30 0.0
02 03:15 S 10 10.00 Fair CLR 77 62.6 61% 79 29.99 0.0
02 02:55 S 8 10.00 Fair CLR 78.8 62.6 58% 80 30 0.0
02 02:35 S 9 10.00 Fair CLR 78.8 62.6 58% 80 30 0.0
02 02:15 SE 9 10.00 Fair CLR 78.8 62.6 58% 80 29.99 0.0
02 01:55 S 8 10.00 Fair CLR 78.8 62.6 58% 80 30 0.0
02 01:35 S 9 10.00 Fair CLR 78.8 60.8 54% 80 30 0.0
02 01:15 S 8 10.00 Fair CLR 80.6 60.8 51% 81 30 0.0
02 00:55 S 9 10.00 Fair CLR 80.6 60.8 51% 81 30 0.0
02 00:35 S 8 10.00 Fair CLR 80.6 60.8 51% 81 30 0.0
02 00:15 S 9 10.00 Fair CLR 82.4 60.8 48% 83 30 0.0
01 23:55 S 9 10.00 Fair CLR 82.4 60.8 48% 83 30 0.0
01 23:35 S 9 10.00 Fair CLR 82.4 60.8 48% 83 30 0.0
01 23:15 S 8 10.00 Fair CLR 84.2 60.8 45% 84 30 0.0
01 22:55 S 9 10.00 Fair CLR 84.2 60.8 45% 84 29.99 0.0
01 22:35 SE 8 10.00 Fair CLR 82.4 60.8 48% 83 29.99 0.0
01 22:15 SE 9 10.00 Fair CLR 84.2 59 43% 84 29.98 0.0
01 21:55 SE 9 10.00 Fair CLR 84.2 60.8 45% 84 29.98 0.0
01 21:35 SE 9 10.00 Fair CLR 86 59 40% 85 29.97 0.0
01 21:15 SE 9 10.00 Fair CLR 86 59 40% 85 29.96 0.0
01 20:55 SE 9 10.00 Fair CLR 87.8 59 38% 87 29.95 0.0
01 20:35 SE 10 10.00 Fair CLR 89.6 59 36% 89 29.94 0.0
01 20:15 SE 12 10.00 Partly Cloudy SCT100 91.4 59 34% 91 29.94 0.0
01 19:55 SE 13 10.00 Mostly Cloudy BKN100 95 57.2 28% 94 29.94 0.0
01 19:35 S 15 10.00 Partly Cloudy SCT100 95 57.2 28% 94 29.94 0.0
01 19:15 S 9 10.00 Mostly Cloudy BKN100 98.6 55.4 24% 97 29.94 0.0
01 18:55 S 14 10.00 Partly Cloudy SCT100 98.6 55.4 24% 97 29.94 0.0
01 18:35 S 14 10.00 Partly Cloudy SCT100 98.6 55.4 24% 97 29.95 0.0
01 18:15 S 9 10.00 Fair CLR 98.6 53.6 22% 96 29.95 0.0
01 17:55 S 9 10.00 Fair CLR 100.4 53.6 21% 98 29.95 0.0
01 17:35 S 10 10.00 Partly Cloudy SCT100 100.4 53.6 21% 98 29.95 0.0
01 17:15 S 16 G 21 10.00 Partly Cloudy SCT100 100.4 53.6 21% 98 29.95 0.0
01 16:55 S 12 10.00 Partly Cloudy SCT095 100.4 55.4 22% 99 29.96 0.0
01 16:35 SE 15 10.00 Mostly Cloudy BKN095 98.6 55.4 24% 97 29.96 0.0
01 16:15 SE 15 10.00 Mostly Cloudy BKN095 98.6 55.4 24% 97 29.97 0.0
01 15:55 S 14 G 21 10.00 Partly Cloudy SCT095 98.6 55.4 24% 97 29.98 0.0
01 15:35 S 15 G 25 10.00 Partly Cloudy SCT095 100.4 55.4 22% 99 29.98 0.0
01 15:15 S 10 G 21 10.00 Partly Cloudy SCT095 100.4 53.6 21% 98 29.99 0.0
01 14:55 S 15 G 21 10.00 Partly Cloudy SCT095 100.4 53.6 21% 98 30 0.0
01 14:35 SE 15 G 18 10.00 Fair CLR 102.2 53.6 20% 100 30 0.0
01 14:15 S 16 G 22 10.00 Partly Cloudy SCT090 100.4 53.6 21% 98 30.01 0.0
01 13:55 S 14 G 20 10.00 Mostly Cloudy BKN090 98.6 53.6 22% 96 30.01 0.0
01 13:35 S 14 G 25 10.00 Partly Cloudy SCT090 100.4 55.4 22% 99 30.03 0.0
01 13:15 SW 14 G 20 10.00 Partly Cloudy SCT090 98.6 55.4 24% 97 30.03 0.0
01 12:55 S 12 G 18 10.00 Partly Cloudy SCT090 98.6 55.4 24% 97 30.04 0.0
01 12:35 S 13 G 20 10.00 Partly Cloudy SCT080 98.6 55.4 24% 97 30.04 0.0
01 12:15 S 9 10.00 Fair CLR 96.8 57.2 27% 96 30.05 0.0
01 11:55 SW 15 G 21 10.00 Fair CLR 96.8 57.2 27% 96 30.05 0.0
01 11:35 S 17 10.00 Fair CLR 96.8 57.2 27% 96 30.06 0.0
01 11:15 SW 15 G 21 10.00 Fair CLR 95 57.2 28% 94 30.06 0.0
01 10:55 S 13 G 17 10.00 Fair CLR 95 59 30% 94 30.06 0.0
01 10:35 S 14 10.00 Fair CLR 93.2 59 32% 93 30.06 0.0
01 10:15 SW 15 10.00 Fair CLR 91.4 59 34% 91 30.06 0.0
01 09:55 SW 13 10.00 Fair CLR 87.8 60.8 40% 88 30.06 0.0
01 09:35 S 8 10.00 Fair CLR 86 59 40% 85 30.07 0.0
01 09:15 S 9 10.00 Fair CLR 86 59 40% 85 30.08 0.0
01 08:55 S 9 10.00 Fair CLR 82.4 59 45% 82 30.08 0.0
01 08:35 S 8 10.00 Fair CLR 80.6 59 48% 81 30.07 0.0
01 08:15 S 7 10.00 Fair CLR 78.8 59 51% 80 30.06 0.0
01 07:55 S 7 10.00 Fair CLR 75.2 59 57% 78 30.06 0.0
01 07:35 S 7 10.00 Fair CLR 73.4 57.2 57% 30.05 0.0
01 07:15 S 6 10.00 Fair CLR 69.8 57.2 64% 30.05 0.0
01 06:55 S 6 10.00 Fair CLR 69.8 57.2 64% 30.04 0.0
01 06:35 S 6 10.00 Fair CLR 71.6 57.2 61% 30.04 0.0
01 06:15 S 7 10.00 Fair CLR 71.6 57.2 61% 30.04 0.0
01 05:55 S 8 10.00 Fair CLR 71.6 57.2 61% 30.03 0.0
01 05:35 S 9 10.00 Fair CLR 71.6 57.2 61% 30.03 0.0
01 05:15 S 7 10.00 Fair CLR 71.6 57.2 61% 30.03 0.0
01 04:55 S 8 10.00 Fair CLR 73.4 57.2 57% 30.03 0.0
01 04:35 S 8 10.00 Fair CLR 71.6 57.2 61% 30.03 0.0
01 04:15 SE 8 10.00 Fair CLR 73.4 57.2 57% 30.02 0.0
01 03:55 SE 8 10.00 Fair CLR 73.4 57.2 57% 30.01 0.0
01 03:35 S 8 10.00 Fair CLR 73.4 55.4 53% 30.02 0.0
01 03:15 S 8 10.00 Fair CLR 73.4 55.4 53% 30.02 0.0
01 02:55 S 8 10.00 Fair CLR 73.4 55.4 53% 30.02 0.0
01 02:35 S 8 10.00 Fair CLR 73.4 55.4 53% 30.01 0.0
01 02:15 S 8 10.00 Fair CLR 73.4 55.4 53% 30.02 0.0
01 01:55 S 7 10.00 Fair CLR 75.2 55.4 50% 78 30.02 0.0
01 01:35 S 8 10.00 Fair CLR 75.2 55.4 50% 78 30.02 0.0
01 01:15 S 8 10.00 Fair CLR 75.2 55.4 50% 78 30.02 0.0
01 00:55 S 8 10.00 Fair CLR 75.2 55.4 50% 78 30.02 0.0
01 00:35 S 9 10.00 Fair CLR 77 55.4 47% 79 30.02 0.0
01 00:15 S 8 10.00 Fair CLR 77 55.4 47% 79 30.01 0.0
31 23:55 S 7 10.00 Fair CLR 77 55.4 47% 79 30.01 0.0
31 23:35 S 7 10.00 Fair CLR 78.8 55.4 45% 79 30.01 0.0
31 23:15 SE 8 10.00 Fair CLR 78.8 55.4 45% 79 30.01 0.0
31 22:55 SE 8 10.00 Fair CLR 78.8 55.4 45% 79 30.01 0.0
31 22:35 SE 8 10.00 Fair CLR 78.8 53.6 42% 79 30 0.0
31 22:15 SE 8 10.00 Fair CLR 80.6 53.6 39% 80 30 0.0
31 21:55 SE 8 10.00 Fair CLR 82.4 53.6 37% 81 29.99 0.0
31 21:35 SE 9 10.00 Fair CLR 84.2 53.6 35% 83 29.98 0.0
31 21:15 SE 12 10.00 Fair CLR 84.2 53.6 35% 83 29.97 0.0
31 20:55 SE 9 10.00 Fair CLR 84.2 53.6 35% 83 29.96 0.0
31 20:35 S 9 10.00 Fair CLR 86 55.4 35% 85 29.96 0.0
31 20:15 S 9 10.00 Fair CLR 87.8 55.4 33% 86 29.95 0.0
31 19:55 S 9 10.00 Fair CLR 91.4 55.4 30% 90 29.95 0.0
31 19:35 S 12 10.00 Fair CLR 95 55.4 26% 93 29.94 0.0
31 19:15 S 14 10.00 Fair CLR 96.8 55.4 25% 95 29.94 0.0
31 18:35 SE 15 10.00 Fair CLR 98.6 55.4 24% 97 29.95 0.0
31 18:15 S 16 G 21 10.00 Fair CLR 98.6 55.4 24% 97 29.95 0.0
31 17:55 S 15 G 20 10.00 Fair CLR 100.4 55.4 22% 99 29.95 0.0
31 17:35 S 12 10.00 Fair CLR 100.4 55.4 22% 99 29.95 0.0
31 17:15 S 15 G 22 10.00 Partly Cloudy SCT095 100.4 55.4 22% 99 29.95 0.0
31 16:55 SW 9 G 16 10.00 Mostly Cloudy BKN095 102.2 55.4 21% 101 29.95 0.0
31 16:35 SE 16 G 20 10.00 Partly Cloudy SCT095 102.2 57.2 23% 102 29.95 0.0
31 16:15 S 13 G 21 10.00 Partly Cloudy SCT085 102.2 57.2 23% 102 29.96 0.0
31 15:55 S 16 G 22 10.00 Partly Cloudy SCT085 98.6 55.4 24% 97 29.97 0.0
31 15:35 S 15 G 22 10.00 Partly Cloudy SCT085 100.4 57.2 24% 100 29.97 0.0
31 15:15 SE 9 10.00 Partly Cloudy SCT085 102.2 57.2 23% 102 29.98 0.0
31 14:55 S 14 G 28 10.00 Mostly Cloudy BKN085 102.2 57.2 23% 102 29.98 0.0
31 14:35 S 15 G 22 10.00 Partly Cloudy SCT085 98.6 57.2 25% 98 29.99 0.0
31 14:15 SE 8 G 22 10.00 Partly Cloudy SCT085 100.4 57.2 24% 100 29.99 0.0
31 13:55 SE 15 10.00 Partly Cloudy SCT085 98.6 57.2 25% 98 30 0.0
31 13:35 S 16 10.00 Partly Cloudy SCT085 100.4 57.2 24% 100 30.01 0.0
31 13:15 S 15 10.00 Fair CLR 100.4 59 25% 100 30.01 0.0
31 12:55 S 20 10.00 Fair CLR 100.4 59 25% 100 30.01 0.0
31 12:35 S 17 G 22 10.00 Partly Cloudy SCT075 98.6 60.8 29% 99 30.02 0.0
31 12:15 S 15 10.00 Fair CLR 98.6 62.6 31% 100 30.03 0.0
31 11:55 SW 12 G 22 0.00 Fair CLR 96.8 62.6 32% 98 30.03 0.0
31 11:35 S 13 G 20 10.00 Fair CLR 96.8 62.6 32% 98 30.03 0.0
31 11:15 S 15 10.00 Fair CLR 95 62.6 34% 96 30.04 0.0
31 10:55 SW 15 10.00 Fair CLR 95 62.6 34% 96 30.04 0.0
31 10:35 SW 16 G 23 10.00 Fair CLR 93.2 62.6 36% 94 30.04 0.0
31 10:15 S 18 10.00 Fair CLR 91.4 62.6 38% 92 30.04 0.0
31 09:55 S 15 10.00 Fair CLR 89.6 62.6 41% 90 30.04 0.0
31 09:35 S 15 10.00 Fair CLR 87.8 62.6 43% 88 30.04 0.0
31 09:15 S 14 10.00 Fair CLR 86 62.6 46% 87 30.04 0.0
31 08:55 S 13 10.00 Fair CLR 84.2 60.8 45% 84 30.04 0.0
31 08:35 S 10 10.00 Fair CLR 82.4 60.8 48% 83 30.04 0.0
31 08:15 S 9 10.00 Fair CLR 80.6 59 48% 81 30.03 0.0
31 07:55 S 8 10.00 Fair CLR 77 59 54% 79 30.02 0.0
31 07:35 S 8 10.00 Fair CLR 73.4 59 61% 30.01 0.0
31 07:15 S 9 10.00 Fair CLR 73.4 59 61% 30.01 0.0
31 06:55 S 9 10.00 Fair CLR 73.4 57.2 57% 30 0.0
31 06:35 S 9 10.00 Fair CLR 73.4 57.2 57% 30 0.0
31 06:15 S 9 10.00 Fair CLR 75.2 57.2 54% 78 29.99 0.0
31 05:55 S 10 10.00 Fair CLR 73.4 57.2 57% 29.98 0.0
31 05:35 S 9 10.00 Fair CLR 73.4 57.2 57% 29.98 0.0
31 05:15 S 8 10.00 Fair CLR 73.4 57.2 57% 29.98 0.0
31 04:55 S 8 10.00 Fair CLR 75.2 57.2 54% 78 29.98 0.0
31 04:35 S 8 10.00 Fair CLR 73.4 57.2 57% 29.98 0.0
31 04:15 S 9 10.00 Fair CLR 75.2 57.2 54% 78 29.98 0.0
31 03:55 S 9 10.00 Fair CLR 75.2 57.2 54% 78 29.97 0.0
31 03:35 S 9 10.00 Fair CLR 75.2 57.2 54% 78 29.97 0.0
31 03:15 S 9 10.00 Fair CLR 73.4 57.2 57% 29.97 0.0
31 02:55 S 8 10.00 Fair CLR 73.4 57.2 57% 29.97 0.0
31 02:35 S 9 10.00 Fair CLR 75.2 57.2 54% 78 29.96 0.0
31 02:15 S 10 10.00 Fair CLR 77 57.2 51% 79 29.96 0.0
31 01:55 S 10 10.00 Fair CLR 78.8 57.2 48% 80 29.96 0.0
31 01:35 S 10 10.00 Fair CLR 78.8 57.2 48% 80 29.96 0.0
31 01:15 S 12 10.00 Fair CLR 80.6 57.2 45% 81 29.96 0.0
31 00:55 S 12 10.00 Fair CLR 80.6 57.2 45% 81 29.96 0.0
31 00:35 S 10 10.00 Fair CLR 80.6 57.2 45% 81 29.95 0.0
31 00:15 S 12 10.00 Fair CLR 82.4 57.2 42% 82 29.95 0.0
30 23:55 S 12 10.00 Fair CLR 82.4 57.2 42% 82 29.95 0.0
30 23:35 S 13 10.00 Fair CLR 82.4 57.2 42% 82 29.95 0.0
30 23:15 S 12 10.00 Fair CLR 84.2 57.2 40% 83 29.94 0.0
30 22:55 S 12 10.00 Fair CLR 84.2 57.2 40% 83 29.94 0.0
30 22:35 S 13 10.00 Fair CLR 86 57.2 38% 85 29.94 0.0
30 22:15 S 12 10.00 Fair CLR 86 57.2 38% 85 29.94 0.0
30 21:55 S 12 10.00 Fair CLR 86 57.2 38% 85 29.93 0.0
30 21:35 S 9 10.00 Fair CLR 84.2 55.4 37% 83 29.92 0.0
30 21:15 S 9 10.00 Fair CLR 86 55.4 35% 85 29.91 0.0
30 20:55 S 10 10.00 Fair CLR 86 55.4 35% 85 29.9 0.0
30 20:35 S 9 10.00 Fair CLR 87.8 55.4 33% 86 29.9 0.0
30 20:15 S 9 10.00 Fair CLR 89.6 55.4 31% 88 29.89 0.0
30 19:55 S 10 10.00 Fair CLR 93.2 53.6 26% 91 29.89 0.0
30 19:35 S 13 10.00 Fair CLR 96.8 55.4 25% 95 29.89 0.0
30 19:15 S 18 10.00 Fair CLR 98.6 55.4 24% 97 29.89 0.0
30 18:55 S 15 10.00 Fair CLR 98.6 55.4 24% 97 29.89 0.0
30 18:35 S 18 G 22 10.00 Fair CLR 100.4 55.4 22% 99 29.89 0.0
30 18:15 S 13 G 22 10.00 Fair CLR 100.4 57.2 24% 100 29.89 0.0
Date Time (cdt) Wind (mph) Vis. (mi.) Weather Sky Cond. Air Dwpt Max. Min. Relative Humidity Wind Chill (°F) Heat Index (°F) altimeter (in) sea level (mb) 1 hr 3 hr 6 hr
6 hour
Temperature (ºF) Pressure Precipitation (in)